Ecokeeper — SVTY — position and weather

sailwx.info

Track history (hours):
 
Tides and Currents Weather Stations Pressure Air Temp Water Temp Dewpoint Dewpoint Depression Visibility Wind Speed Wind Dir Waves Ship Positions

Ecokeeper

Last reported at 2016-May-26 11:33 UTC. Time now 2016-May-28 04:04 UTC.
Position N 37°57' E 023°34'.

Length 90 m; draft 4.2 m.

Type: Tanker. MMSI: 240689000.

Date/timePositionNaut miles runAvg speedWind from/ knotsBaromVisibWave heightAir tempDewpointWater temp
2016-May-26 11:33N 37°57' E 023°34'0 0.0
2016-May-26 10:33N 37°57' E 023°34'0 0.0
2016-May-26 09:33N 37°57' E 023°34'0 0.0
2016-May-26 08:33N 37°57' E 023°34'  
2016-May-21 04:30N 37°57' E 023°34'2 2.5
2016-May-21 03:33N 37°57' E 023°37'0 0.0
2016-May-21 02:33N 37°57' E 023°37'0 0.0
2016-May-21 01:34N 37°57' E 023°37'0 0.0
2016-May-21 00:33N 37°57' E 023°37'0 0.0
2016-May-20 23:34N 37°57' E 023°37'0 0.0
2016-May-20 22:33N 37°57' E 023°37'0 0.0
2016-May-20 21:33N 37°57' E 023°37'0 0.0
2016-May-20 20:33N 37°57' E 023°37'0 0.0
2016-May-20 19:34N 37°57' E 023°37'0 0.0
2016-May-20 18:34N 37°57' E 023°37'1 0.8
2016-May-20 17:34N 37°56' E 023°36'4 4.2
2016-May-20 16:33N 37°53' E 023°33'0 0.0
2016-May-20 15:33N 37°53' E 023°33'0 0.0
2016-May-20 14:33N 37°53' E 023°33'0 0.0
2016-May-20 13:34N 37°53' E 023°33'0 0.0
2016-May-20 12:33N 37°52' E 023°33'0 0.0
2016-May-20 11:33N 37°53' E 023°33'0 0.1
2016-May-20 10:33N 37°52' E 023°33'0 0.0
2016-May-20 09:33N 37°53' E 023°33'0 0.0
2016-May-20 08:33N 37°52' E 023°33'0 0.0
2016-May-20 07:33N 37°52' E 023°33'4 3.8
2016-May-20 06:33N 37°56' E 023°35'1 0.1
2016-May-19 20:34N 37°57' E 023°34'2 2.3
2016-May-19 19:34N 37°57' E 023°37'0 0.2
2016-May-19 18:33N 37°57' E 023°37'0 0.0
2016-May-19 17:34N 37°57' E 023°37'0 0.0
2016-May-19 16:34N 37°57' E 023°37'0 0.0
2016-May-19 15:34N 37°57' E 023°37'0 0.0
2016-May-19 14:33N 37°57' E 023°37'0 0.0
2016-May-19 13:33N 37°57' E 023°37'6 6.5
2016-May-19 12:34N 37°53' E 023°31'1 0.6
2016-May-19 11:34N 37°52' E 023°30'0 0.0
2016-May-19 10:33N 37°52' E 023°30'0 0.1
2016-May-19 09:34N 37°52' E 023°30'0 0.0
2016-May-19 08:34N 37°52' E 023°30'0 0.0
2016-May-19 07:34N 37°52' E 023°30'0 0.0
2016-May-19 06:34N 37°52' E 023°30'3 3.4
2016-May-19 05:34N 37°55' E 023°33'  
2016-May-16 17:33N 37°57' E 023°34'5 5.3
2016-May-16 16:33N 37°52' E 023°32'0 0.0
2016-May-16 15:33N 37°52' E 023°32'0 0.0
2016-May-16 14:33N 37°52' E 023°32'0 0.0
2016-May-16 13:33N 37°52' E 023°32'0 0.1
2016-May-16 12:33N 37°52' E 023°32'  
Track history (hours):
 
Tides and Currents Weather Stations Pressure Air Temp Water Temp Dewpoint Dewpoint Depression Visibility Wind Speed Wind Dir Waves Ship Positions

Ecokeeper

Last reported at 2016-May-26 11:33 UTC. Time now 2016-May-28 04:04 UTC.
Position N 37°57' E 023°34'.

Length 90 m; draft 4.2 m.

Type: Tanker. MMSI: 240689000.

Date/timePositionNaut miles runAvg speedWind from/ knotsBaromVisibWave heightAir tempDewpointWater temp
2016-May-26 11:33N 37°57' E 023°34'0 0.0
2016-May-26 10:33N 37°57' E 023°34'0 0.0
2016-May-26 09:33N 37°57' E 023°34'0 0.0
2016-May-26 08:33N 37°57' E 023°34'  
2016-May-21 04:30N 37°57' E 023°34'2 2.5
2016-May-21 03:33N 37°57' E 023°37'0 0.0
2016-May-21 02:33N 37°57' E 023°37'0 0.0
2016-May-21 01:34N 37°57' E 023°37'0 0.0
2016-May-21 00:33N 37°57' E 023°37'0 0.0
2016-May-20 23:34N 37°57' E 023°37'0 0.0
2016-May-20 22:33N 37°57' E 023°37'0 0.0
2016-May-20 21:33N 37°57' E 023°37'0 0.0
2016-May-20 20:33N 37°57' E 023°37'0 0.0
2016-May-20 19:34N 37°57' E 023°37'0 0.0
2016-May-20 18:34N 37°57' E 023°37'1 0.8
2016-May-20 17:34N 37°56' E 023°36'4 4.2
2016-May-20 16:33N 37°53' E 023°33'0 0.0
2016-May-20 15:33N 37°53' E 023°33'0 0.0
2016-May-20 14:33N 37°53' E 023°33'0 0.0
2016-May-20 13:34N 37°53' E 023°33'0 0.0
2016-May-20 12:33N 37°52' E 023°33'0 0.0
2016-May-20 11:33N 37°53' E 023°33'0 0.1
2016-May-20 10:33N 37°52' E 023°33'0 0.0
2016-May-20 09:33N 37°53' E 023°33'0 0.0
2016-May-20 08:33N 37°52' E 023°33'0 0.0
2016-May-20 07:33N 37°52' E 023°33'4 3.8
2016-May-20 06:33N 37°56' E 023°35'1 0.1
2016-May-19 20:34N 37°57' E 023°34'2 2.3
2016-May-19 19:34N 37°57' E 023°37'0 0.2
2016-May-19 18:33N 37°57' E 023°37'0 0.0
2016-May-19 17:34N 37°57' E 023°37'0 0.0
2016-May-19 16:34N 37°57' E 023°37'0 0.0
2016-May-19 15:34N 37°57' E 023°37'0 0.0
2016-May-19 14:33N 37°57' E 023°37'0 0.0
2016-May-19 13:33N 37°57' E 023°37'6 6.5
2016-May-19 12:34N 37°53' E 023°31'1 0.6
2016-May-19 11:34N 37°52' E 023°30'0 0.0
2016-May-19 10:33N 37°52' E 023°30'0 0.1
2016-May-19 09:34N 37°52' E 023°30'0 0.0
2016-May-19 08:34N 37°52' E 023°30'0 0.0
2016-May-19 07:34N 37°52' E 023°30'0 0.0
2016-May-19 06:34N 37°52' E 023°30'3 3.4
2016-May-19 05:34N 37°55' E 023°33'  
2016-May-16 17:33N 37°57' E 023°34'5 5.3
2016-May-16 16:33N 37°52' E 023°32'0 0.0
2016-May-16 15:33N 37°52' E 023°32'0 0.0
2016-May-16 14:33N 37°52' E 023°32'0 0.0
2016-May-16 13:33N 37°52' E 023°32'0 0.1
2016-May-16 12:33N 37°52' E 023°32'  

Dump ship's entire track history